sensor_id;sensor_type;location;lat;lon;timestamp;P1;durP1;ratioP1;P2;durP2;ratioP2
7158;SDS011;63175;52.374;13.132;2023-04-23T00:01:20;10.10;;;8.50;;
7158;SDS011;63175;52.374;13.132;2023-04-23T00:03:51;10.70;;;8.97;;
7158;SDS011;63175;52.374;13.132;2023-04-23T00:06:22;11.00;;;8.40;;
7158;SDS011;63175;52.374;13.132;2023-04-23T00:08:51;9.03;;;8.13;;
7158;SDS011;63175;52.374;13.132;2023-04-23T00:11:19;7.63;;;6.90;;
7158;SDS011;63175;52.374;13.132;2023-04-23T00:13:46;7.87;;;7.17;;
7158;SDS011;63175;52.374;13.132;2023-04-23T00:16:14;8.07;;;7.27;;
7158;SDS011;63175;52.374;13.132;2023-04-23T00:18:41;7.43;;;6.70;;
7158;SDS011;63175;52.374;13.132;2023-04-23T00:21:08;11.13;;;7.87;;
7158;SDS011;63175;52.374;13.132;2023-04-23T00:23:36;7.80;;;6.97;;
7158;SDS011;63175;52.374;13.132;2023-04-23T00:26:04;10.10;;;7.17;;
7158;SDS011;63175;52.374;13.132;2023-04-23T00:28:31;7.43;;;6.73;;
7158;SDS011;63175;52.374;13.132;2023-04-23T00:30:57;9.47;;;7.47;;
7158;SDS011;63175;52.374;13.132;2023-04-23T00:33:24;9.93;;;6.80;;
7158;SDS011;63175;52.374;13.132;2023-04-23T00:35:51;7.20;;;6.50;;
7158;SDS011;63175;52.374;13.132;2023-04-23T00:38:18;10.90;;;6.57;;
7158;SDS011;63175;52.374;13.132;2023-04-23T00:40:47;9.17;;;6.80;;
7158;SDS011;63175;52.374;13.132;2023-04-23T00:43:14;7.83;;;6.30;;
7158;SDS011;63175;52.374;13.132;2023-04-23T00:45:41;8.00;;;6.63;;
7158;SDS011;63175;52.374;13.132;2023-04-23T00:48:08;8.10;;;6.20;;
7158;SDS011;63175;52.374;13.132;2023-04-23T00:50:36;7.53;;;6.10;;
7158;SDS011;63175;52.374;13.132;2023-04-23T00:53:03;9.67;;;6.90;;
7158;SDS011;63175;52.374;13.132;2023-04-23T00:55:30;8.27;;;6.47;;
7158;SDS011;63175;52.374;13.132;2023-04-23T00:58:00;9.70;;;6.30;;
7158;SDS011;63175;52.374;13.132;2023-04-23T01:00:27;7.43;;;6.63;;
7158;SDS011;63175;52.374;13.132;2023-04-23T01:02:55;10.70;;;6.97;;
7158;SDS011;63175;52.374;13.132;2023-04-23T01:05:23;8.73;;;7.17;;
7158;SDS011;63175;52.374;13.132;2023-04-23T01:07:51;8.40;;;6.97;;
7158;SDS011;63175;52.374;13.132;2023-04-23T01:10:19;8.33;;;7.43;;
7158;SDS011;63175;52.374;13.132;2023-04-23T01:12:46;10.10;;;7.63;;
7158;SDS011;63175;52.374;13.132;2023-04-23T01:15:15;7.90;;;6.40;;
7158;SDS011;63175;52.374;13.132;2023-04-23T01:17:42;6.90;;;6.30;;
7158;SDS011;63175;52.374;13.132;2023-04-23T01:20:09;7.83;;;6.70;;
7158;SDS011;63175;52.374;13.132;2023-04-23T01:22:38;6.87;;;5.90;;
7158;SDS011;63175;52.374;13.132;2023-04-23T01:25:05;10.60;;;7.13;;
7158;SDS011;63175;52.374;13.132;2023-04-23T01:27:34;8.33;;;6.83;;
7158;SDS011;63175;52.374;13.132;2023-04-23T01:30:02;10.43;;;6.70;;
7158;SDS011;63175;52.374;13.132;2023-04-23T01:32:30;9.13;;;7.30;;
7158;SDS011;63175;52.374;13.132;2023-04-23T01:34:57;6.93;;;6.30;;
7158;SDS011;63175;52.374;13.132;2023-04-23T01:37:24;7.80;;;6.80;;
7158;SDS011;63175;52.374;13.132;2023-04-23T01:39:54;7.30;;;6.13;;
7158;SDS011;63175;52.374;13.132;2023-04-23T01:42:21;6.93;;;5.97;;
7158;SDS011;63175;52.374;13.132;2023-04-23T01:44:48;7.60;;;6.90;;
7158;SDS011;63175;52.374;13.132;2023-04-23T01:47:16;7.30;;;6.60;;
7158;SDS011;63175;52.374;13.132;2023-04-23T01:49:44;7.60;;;6.50;;
7158;SDS011;63175;52.374;13.132;2023-04-23T01:52:11;11.87;;;7.60;;
7158;SDS011;63175;52.374;13.132;2023-04-23T01:54:37;9.60;;;6.73;;
7158;SDS011;63175;52.374;13.132;2023-04-23T01:57:06;8.33;;;6.87;;
7158;SDS011;63175;52.374;13.132;2023-04-23T01:59:33;11.30;;;6.60;;
7158;SDS011;63175;52.374;13.132;2023-04-23T02:01:59;8.30;;;6.87;;
7158;SDS011;63175;52.374;13.132;2023-04-23T02:04:26;8.00;;;6.83;;
7158;SDS011;63175;52.374;13.132;2023-04-23T02:06:55;9.20;;;6.37;;
7158;SDS011;63175;52.374;13.132;2023-04-23T02:09:22;8.73;;;7.77;;
7158;SDS011;63175;52.374;13.132;2023-04-23T02:11:49;13.70;;;7.00;;
7158;SDS011;63175;52.374;13.132;2023-04-23T02:14:17;8.70;;;6.97;;
7158;SDS011;63175;52.374;13.132;2023-04-23T02:16:44;6.57;;;6.00;;
7158;SDS011;63175;52.374;13.132;2023-04-23T02:19:11;8.07;;;7.10;;
7158;SDS011;63175;52.374;13.132;2023-04-23T02:21:40;6.77;;;6.10;;
7158;SDS011;63175;52.374;13.132;2023-04-23T02:24:06;7.90;;;6.50;;
7158;SDS011;63175;52.374;13.132;2023-04-23T02:26:33;7.93;;;6.97;;
7158;SDS011;63175;52.374;13.132;2023-04-23T02:29:00;6.93;;;5.50;;
7158;SDS011;63175;52.374;13.132;2023-04-23T02:31:29;7.20;;;6.27;;
7158;SDS011;63175;52.374;13.132;2023-04-23T02:33:56;6.50;;;5.90;;
7158;SDS011;63175;52.374;13.132;2023-04-23T02:36:22;8.00;;;6.87;;
7158;SDS011;63175;52.374;13.132;2023-04-23T02:38:50;6.97;;;6.37;;
7158;SDS011;63175;52.374;13.132;2023-04-23T02:41:17;7.30;;;6.60;;
7158;SDS011;63175;52.374;13.132;2023-04-23T02:43:44;9.70;;;6.20;;
7158;SDS011;63175;52.374;13.132;2023-04-23T02:46:11;8.83;;;6.97;;
7158;SDS011;63175;52.374;13.132;2023-04-23T02:48:39;7.30;;;6.57;;
7158;SDS011;63175;52.374;13.132;2023-04-23T02:51:06;9.30;;;7.67;;
7158;SDS011;63175;52.374;13.132;2023-04-23T02:53:35;7.53;;;6.73;;
7158;SDS011;63175;52.374;13.132;2023-04-23T02:56:02;7.43;;;6.53;;
7158;SDS011;63175;52.374;13.132;2023-04-23T02:58:29;8.30;;;6.77;;
7158;SDS011;63175;52.374;13.132;2023-04-23T03:00:56;11.33;;;7.63;;
7158;SDS011;63175;52.374;13.132;2023-04-23T03:03:24;9.57;;;6.60;;
7158;SDS011;63175;52.374;13.132;2023-04-23T03:05:56;7.70;;;6.43;;
7158;SDS011;63175;52.374;13.132;2023-04-23T03:08:24;7.40;;;6.40;;
7158;SDS011;63175;52.374;13.132;2023-04-23T03:10:51;7.37;;;6.30;;
7158;SDS011;63175;52.374;13.132;2023-04-23T03:13:18;7.57;;;6.90;;
7158;SDS011;63175;52.374;13.132;2023-04-23T03:15:45;6.40;;;5.80;;
7158;SDS011;63175;52.374;13.132;2023-04-23T03:18:13;6.90;;;6.20;;
7158;SDS011;63175;52.374;13.132;2023-04-23T03:20:40;8.90;;;6.33;;
7158;SDS011;63175;52.374;13.132;2023-04-23T03:23:08;7.03;;;6.07;;
7158;SDS011;63175;52.374;13.132;2023-04-23T03:25:35;7.37;;;6.67;;
7158;SDS011;63175;52.374;13.132;2023-04-23T03:28:02;8.00;;;5.73;;
7158;SDS011;63175;52.374;13.132;2023-04-23T03:30:29;9.27;;;7.20;;
7158;SDS011;63175;52.374;13.132;2023-04-23T03:32:56;8.23;;;6.80;;
7158;SDS011;63175;52.374;13.132;2023-04-23T03:35:26;7.57;;;6.77;;
7158;SDS011;63175;52.374;13.132;2023-04-23T03:37:53;9.30;;;7.37;;
7158;SDS011;63175;52.374;13.132;2023-04-23T03:40:21;7.43;;;6.80;;
7158;SDS011;63175;52.374;13.132;2023-04-23T03:42:48;7.43;;;6.33;;
7158;SDS011;63175;52.374;13.132;2023-04-23T03:45:15;6.93;;;6.30;;
7158;SDS011;63175;52.374;13.132;2023-04-23T03:47:42;9.20;;;7.77;;
7158;SDS011;63175;52.374;13.132;2023-04-23T03:50:09;9.23;;;6.97;;
7158;SDS011;63175;52.374;13.132;2023-04-23T03:52:37;7.73;;;7.03;;
7158;SDS011;63175;52.374;13.132;2023-04-23T03:55:04;7.13;;;6.53;;
7158;SDS011;63175;52.374;13.132;2023-04-23T03:57:33;10.20;;;7.97;;
7158;SDS011;63175;52.374;13.132;2023-04-23T04:00:00;7.60;;;6.90;;
7158;SDS011;63175;52.374;13.132;2023-04-23T04:02:27;7.27;;;6.60;;
7158;SDS011;63175;52.374;13.132;2023-04-23T04:04:54;7.87;;;7.10;;
7158;SDS011;63175;52.374;13.132;2023-04-23T04:07:21;7.30;;;6.60;;
7158;SDS011;63175;52.374;13.132;2023-04-23T04:09:48;7.10;;;6.50;;
7158;SDS011;63175;52.374;13.132;2023-04-23T04:12:15;7.53;;;6.80;;
7158;SDS011;63175;52.374;13.132;2023-04-23T04:14:43;6.23;;;5.73;;
7158;SDS011;63175;52.374;13.132;2023-04-23T04:17:10;7.30;;;6.60;;
7158;SDS011;63175;52.374;13.132;2023-04-23T04:19:39;6.33;;;5.73;;
7158;SDS011;63175;52.374;13.132;2023-04-23T04:22:06;7.07;;;6.37;;
7158;SDS011;63175;52.374;13.132;2023-04-23T04:24:33;7.73;;;6.00;;
7158;SDS011;63175;52.374;13.132;2023-04-23T04:27:00;7.03;;;6.33;;
7158;SDS011;63175;52.374;13.132;2023-04-23T04:29:27;6.63;;;6.03;;
7158;SDS011;63175;52.374;13.132;2023-04-23T04:31:57;11.27;;;6.03;;
7158;SDS011;63175;52.374;13.132;2023-04-23T04:34:25;7.27;;;6.17;;
7158;SDS011;63175;52.374;13.132;2023-04-23T04:36:52;7.13;;;6.53;;
7158;SDS011;63175;52.374;13.132;2023-04-23T04:39:19;7.00;;;6.40;;
7158;SDS011;63175;52.374;13.132;2023-04-23T04:41:45;7.37;;;6.20;;
7158;SDS011;63175;52.374;13.132;2023-04-23T04:44:13;7.10;;;6.40;;
7158;SDS011;63175;52.374;13.132;2023-04-23T04:46:40;8.30;;;6.63;;
7158;SDS011;63175;52.374;13.132;2023-04-23T04:49:09;7.10;;;6.40;;
7158;SDS011;63175;52.374;13.132;2023-04-23T04:51:36;7.07;;;6.47;;
7158;SDS011;63175;52.374;13.132;2023-04-23T04:54:04;6.73;;;6.10;;
7158;SDS011;63175;52.374;13.132;2023-04-23T04:56:31;7.60;;;5.90;;
7158;SDS011;63175;52.374;13.132;2023-04-23T04:58:58;6.80;;;6.20;;
7158;SDS011;63175;52.374;13.132;2023-04-23T05:01:25;6.23;;;5.60;;
7158;SDS011;63175;52.374;13.132;2023-04-23T05:03:53;10.53;;;5.93;;
7158;SDS011;63175;52.374;13.132;2023-04-23T05:06:21;7.00;;;6.30;;
7158;SDS011;63175;52.374;13.132;2023-04-23T05:08:48;7.23;;;5.73;;
7158;SDS011;63175;52.374;13.132;2023-04-23T05:11:16;6.07;;;5.47;;
7158;SDS011;63175;52.374;13.132;2023-04-23T05:13:43;16.03;;;7.10;;
7158;SDS011;63175;52.374;13.132;2023-04-23T05:16:11;5.73;;;5.33;;
7158;SDS011;63175;52.374;13.132;2023-04-23T05:18:38;7.03;;;5.40;;
7158;SDS011;63175;52.374;13.132;2023-04-23T05:21:06;6.13;;;5.63;;
7158;SDS011;63175;52.374;13.132;2023-04-23T05:23:35;6.20;;;5.10;;
7158;SDS011;63175;52.374;13.132;2023-04-23T05:26:02;5.73;;;5.13;;
7158;SDS011;63175;52.374;13.132;2023-04-23T05:28:29;5.93;;;5.30;;
7158;SDS011;63175;52.374;13.132;2023-04-23T05:30:56;11.27;;;6.10;;
7158;SDS011;63175;52.374;13.132;2023-04-23T05:33:23;7.43;;;5.93;;
7158;SDS011;63175;52.374;13.132;2023-04-23T05:35:51;6.97;;;6.27;;
7158;SDS011;63175;52.374;13.132;2023-04-23T05:38:18;6.43;;;5.93;;
7158;SDS011;63175;52.374;13.132;2023-04-23T05:40:47;5.57;;;5.07;;
7158;SDS011;63175;52.374;13.132;2023-04-23T05:43:14;5.57;;;5.07;;
7158;SDS011;63175;52.374;13.132;2023-04-23T05:45:40;5.90;;;5.40;;
7158;SDS011;63175;52.374;13.132;2023-04-23T05:48:08;7.73;;;6.97;;
7158;SDS011;63175;52.374;13.132;2023-04-23T05:50:35;7.10;;;5.93;;
7158;SDS011;63175;52.374;13.132;2023-04-23T05:53:01;6.27;;;5.67;;
7158;SDS011;63175;52.374;13.132;2023-04-23T05:55:28;7.97;;;6.10;;
7158;SDS011;63175;52.374;13.132;2023-04-23T05:57:56;7.70;;;5.00;;
7158;SDS011;63175;52.374;13.132;2023-04-23T06:00:23;5.40;;;4.90;;
7158;SDS011;63175;52.374;13.132;2023-04-23T06:02:50;5.83;;;5.30;;
7158;SDS011;63175;52.374;13.132;2023-04-23T06:05:17;6.20;;;4.90;;
7158;SDS011;63175;52.374;13.132;2023-04-23T06:07:44;5.50;;;5.03;;
7158;SDS011;63175;52.374;13.132;2023-04-23T06:10:11;5.57;;;4.73;;
7158;SDS011;63175;52.374;13.132;2023-04-23T06:12:38;5.57;;;5.07;;
7158;SDS011;63175;52.374;13.132;2023-04-23T06:15:08;5.53;;;5.13;;
7158;SDS011;63175;52.374;13.132;2023-04-23T06:17:35;6.03;;;5.53;;
7158;SDS011;63175;52.374;13.132;2023-04-23T06:20:03;5.10;;;4.70;;
7158;SDS011;63175;52.374;13.132;2023-04-23T06:22:30;5.80;;;5.30;;
7158;SDS011;63175;52.374;13.132;2023-04-23T06:24:57;5.57;;;5.07;;
7158;SDS011;63175;52.374;13.132;2023-04-23T06:27:24;5.43;;;4.97;;
7158;SDS011;63175;52.374;13.132;2023-04-23T06:29:51;8.13;;;4.47;;
7158;SDS011;63175;52.374;13.132;2023-04-23T06:32:20;5.77;;;5.33;;
7158;SDS011;63175;52.374;13.132;2023-04-23T06:34:47;5.90;;;5.40;;
7158;SDS011;63175;52.374;13.132;2023-04-23T06:37:14;6.43;;;5.23;;
7158;SDS011;63175;52.374;13.132;2023-04-23T06:39:41;11.23;;;5.33;;
7158;SDS011;63175;52.374;13.132;2023-04-23T06:42:07;6.30;;;5.10;;
7158;SDS011;63175;52.374;13.132;2023-04-23T06:44:34;5.60;;;5.10;;
7158;SDS011;63175;52.374;13.132;2023-04-23T06:47:01;5.67;;;5.17;;
7158;SDS011;63175;52.374;13.132;2023-04-23T06:49:29;8.97;;;5.50;;
7158;SDS011;63175;52.374;13.132;2023-04-23T06:51:56;5.17;;;4.70;;
7158;SDS011;63175;52.374;13.132;2023-04-23T06:54:23;5.33;;;4.93;;
7158;SDS011;63175;52.374;13.132;2023-04-23T06:56:50;5.10;;;4.60;;
7158;SDS011;63175;52.374;13.132;2023-04-23T06:59:16;5.40;;;5.00;;
7158;SDS011;63175;52.374;13.132;2023-04-23T07:01:44;5.47;;;5.07;;
7158;SDS011;63175;52.374;13.132;2023-04-23T07:04:11;5.70;;;5.20;;
7158;SDS011;63175;52.374;13.132;2023-04-23T07:06:39;5.63;;;5.13;;
7158;SDS011;63175;52.374;13.132;2023-04-23T07:09:06;5.77;;;5.37;;
7158;SDS011;63175;52.374;13.132;2023-04-23T07:11:33;5.30;;;4.90;;
7158;SDS011;63175;52.374;13.132;2023-04-23T07:14:01;5.47;;;5.07;;
7158;SDS011;63175;52.374;13.132;2023-04-23T07:16:28;5.50;;;4.90;;
7158;SDS011;63175;52.374;13.132;2023-04-23T07:18:57;6.50;;;5.90;;
7158;SDS011;63175;52.374;13.132;2023-04-23T07:21:25;5.77;;;5.27;;
7158;SDS011;63175;52.374;13.132;2023-04-23T07:23:54;5.73;;;5.33;;
7158;SDS011;63175;52.374;13.132;2023-04-23T07:26:22;5.93;;;5.43;;
7158;SDS011;63175;52.374;13.132;2023-04-23T07:28:50;5.47;;;4.97;;
7158;SDS011;63175;52.374;13.132;2023-04-23T07:31:16;5.10;;;4.70;;
7158;SDS011;63175;52.374;13.132;2023-04-23T07:33:44;5.73;;;5.23;;
7158;SDS011;63175;52.374;13.132;2023-04-23T07:36:11;7.47;;;5.53;;
7158;SDS011;63175;52.374;13.132;2023-04-23T07:38:38;5.50;;;5.10;;
7158;SDS011;63175;52.374;13.132;2023-04-23T07:41:06;5.43;;;4.93;;
7158;SDS011;63175;52.374;13.132;2023-04-23T07:43:33;5.13;;;4.73;;
7158;SDS011;63175;52.374;13.132;2023-04-23T07:46:00;5.87;;;5.27;;
7158;SDS011;63175;52.374;13.132;2023-04-23T07:48:27;5.63;;;5.13;;
7158;SDS011;63175;52.374;13.132;2023-04-23T07:50:54;5.23;;;4.83;;
7158;SDS011;63175;52.374;13.132;2023-04-23T07:53:21;5.10;;;4.63;;
7158;SDS011;63175;52.374;13.132;2023-04-23T07:55:48;6.17;;;5.03;;
7158;SDS011;63175;52.374;13.132;2023-04-23T07:58:16;5.63;;;5.23;;
7158;SDS011;63175;52.374;13.132;2023-04-23T08:00:43;5.57;;;5.07;;
7158;SDS011;63175;52.374;13.132;2023-04-23T08:03:10;4.80;;;4.50;;
7158;SDS011;63175;52.374;13.132;2023-04-23T08:05:37;5.50;;;5.00;;
7158;SDS011;63175;52.374;13.132;2023-04-23T08:08:05;5.20;;;4.80;;
7158;SDS011;63175;52.374;13.132;2023-04-23T08:10:32;5.10;;;4.70;;
7158;SDS011;63175;52.374;13.132;2023-04-23T08:12:59;5.00;;;4.63;;
7158;SDS011;63175;52.374;13.132;2023-04-23T08:15:28;4.60;;;4.30;;
7158;SDS011;63175;52.374;13.132;2023-04-23T08:17:55;5.80;;;4.40;;
7158;SDS011;63175;52.374;13.132;2023-04-23T08:20:22;5.30;;;4.90;;
7158;SDS011;63175;52.374;13.132;2023-04-23T08:22:49;4.50;;;4.20;;
7158;SDS011;63175;52.374;13.132;2023-04-23T08:25:17;5.27;;;4.90;;
7158;SDS011;63175;52.374;13.132;2023-04-23T08:27:44;5.97;;;3.83;;
7158;SDS011;63175;52.374;13.132;2023-04-23T08:30:11;4.17;;;3.87;;
7158;SDS011;63175;52.374;13.132;2023-04-23T08:32:40;6.10;;;4.80;;
7158;SDS011;63175;52.374;13.132;2023-04-23T08:35:08;5.20;;;4.70;;
7158;SDS011;63175;52.374;13.132;2023-04-23T08:37:34;5.20;;;4.70;;
7158;SDS011;63175;52.374;13.132;2023-04-23T08:40:03;7.30;;;5.60;;
7158;SDS011;63175;52.374;13.132;2023-04-23T08:42:34;4.73;;;4.10;;
7158;SDS011;63175;52.374;13.132;2023-04-23T08:45:05;5.13;;;4.50;;
7158;SDS011;63175;52.374;13.132;2023-04-23T08:47:33;4.67;;;4.37;;
7158;SDS011;63175;52.374;13.132;2023-04-23T08:50:02;3.93;;;3.63;;
7158;SDS011;63175;52.374;13.132;2023-04-23T08:52:32;4.73;;;4.33;;
7158;SDS011;63175;52.374;13.132;2023-04-23T08:55:00;6.47;;;4.20;;
7158;SDS011;63175;52.374;13.132;2023-04-23T08:57:29;4.77;;;4.20;;
7158;SDS011;63175;52.374;13.132;2023-04-23T08:59:56;6.00;;;5.13;;
7158;SDS011;63175;52.374;13.132;2023-04-23T09:02:24;4.17;;;3.83;;
7158;SDS011;63175;52.374;13.132;2023-04-23T09:04:51;4.50;;;4.10;;
7158;SDS011;63175;52.374;13.132;2023-04-23T09:07:20;4.83;;;4.40;;
7158;SDS011;63175;52.374;13.132;2023-04-23T09:09:47;4.00;;;3.70;;
7158;SDS011;63175;52.374;13.132;2023-04-23T09:12:13;5.30;;;4.33;;
7158;SDS011;63175;52.374;13.132;2023-04-23T09:14:40;8.23;;;4.10;;
7158;SDS011;63175;52.374;13.132;2023-04-23T09:17:07;4.57;;;3.47;;
7158;SDS011;63175;52.374;13.132;2023-04-23T09:19:34;4.00;;;3.70;;
7158;SDS011;63175;52.374;13.132;2023-04-23T09:22:03;4.13;;;3.83;;
7158;SDS011;63175;52.374;13.132;2023-04-23T09:24:31;3.10;;;2.90;;
7158;SDS011;63175;52.374;13.132;2023-04-23T09:26:59;3.40;;;3.20;;
7158;SDS011;63175;52.374;13.132;2023-04-23T09:29:26;2.60;;;2.50;;
7158;SDS011;63175;52.374;13.132;2023-04-23T09:31:54;4.23;;;3.83;;
7158;SDS011;63175;52.374;13.132;2023-04-23T09:34:22;3.50;;;3.20;;
7158;SDS011;63175;52.374;13.132;2023-04-23T09:36:51;4.37;;;4.00;;
7158;SDS011;63175;52.374;13.132;2023-04-23T09:39:20;3.97;;;3.67;;
7158;SDS011;63175;52.374;13.132;2023-04-23T09:41:50;3.97;;;3.60;;
7158;SDS011;63175;52.374;13.132;2023-04-23T09:44:18;3.93;;;3.63;;
7158;SDS011;63175;52.374;13.132;2023-04-23T09:46:46;4.63;;;4.30;;
7158;SDS011;63175;52.374;13.132;2023-04-23T09:49:14;4.80;;;4.03;;
7158;SDS011;63175;52.374;13.132;2023-04-23T09:51:41;4.63;;;4.23;;
7158;SDS011;63175;52.374;13.132;2023-04-23T09:54:10;4.23;;;3.93;;
7158;SDS011;63175;52.374;13.132;2023-04-23T09:56:38;4.80;;;4.43;;
7158;SDS011;63175;52.374;13.132;2023-04-23T09:59:19;4.70;;;4.40;;
7158;SDS011;63175;52.374;13.132;2023-04-23T10:01:47;4.80;;;4.50;;
7158;SDS011;63175;52.374;13.132;2023-04-23T10:04:16;5.00;;;4.60;;
7158;SDS011;63175;52.374;13.132;2023-04-23T10:06:45;4.37;;;4.07;;
7158;SDS011;63175;52.374;13.132;2023-04-23T10:09:12;5.50;;;5.10;;
7158;SDS011;63175;52.374;13.132;2023-04-23T10:11:39;6.00;;;5.50;;
7158;SDS011;63175;52.374;13.132;2023-04-23T10:14:07;5.57;;;5.07;;
7158;SDS011;63175;52.374;13.132;2023-04-23T10:16:37;5.27;;;4.87;;
7158;SDS011;63175;52.374;13.132;2023-04-23T10:19:05;5.80;;;5.30;;
7158;SDS011;63175;52.374;13.132;2023-04-23T10:21:35;7.80;;;7.00;;
7158;SDS011;63175;52.374;13.132;2023-04-23T10:24:03;11.27;;;9.00;;
7158;SDS011;63175;52.374;13.132;2023-04-23T10:26:32;7.20;;;6.50;;
7158;SDS011;63175;52.374;13.132;2023-04-23T10:29:01;8.33;;;7.53;;
7158;SDS011;63175;52.374;13.132;2023-04-23T10:31:30;6.73;;;6.10;;
7158;SDS011;63175;52.374;13.132;2023-04-23T10:34:00;9.47;;;8.63;;
7158;SDS011;63175;52.374;13.132;2023-04-23T10:36:30;9.07;;;8.20;;
7158;SDS011;63175;52.374;13.132;2023-04-23T10:38:58;10.17;;;9.10;;
7158;SDS011;63175;52.374;13.132;2023-04-23T10:41:28;8.30;;;7.50;;
7158;SDS011;63175;52.374;13.132;2023-04-23T10:44:01;8.63;;;7.77;;
7158;SDS011;63175;52.374;13.132;2023-04-23T10:46:28;8.77;;;7.57;;
7158;SDS011;63175;52.374;13.132;2023-04-23T10:49:08;9.07;;;7.20;;
7158;SDS011;63175;52.374;13.132;2023-04-23T10:51:38;6.53;;;5.93;;
7158;SDS011;63175;52.374;13.132;2023-04-23T10:54:06;4.63;;;4.10;;
7158;SDS011;63175;52.374;13.132;2023-04-23T10:56:36;4.03;;;3.73;;
7158;SDS011;63175;52.374;13.132;2023-04-23T10:59:04;6.10;;;5.50;;
7158;SDS011;63175;52.374;13.132;2023-04-23T11:01:32;5.40;;;4.93;;
7158;SDS011;63175;52.374;13.132;2023-04-23T11:04:06;6.33;;;5.47;;
7158;SDS011;63175;52.374;13.132;2023-04-23T11:06:50;5.00;;;4.10;;
7158;SDS011;63175;52.374;13.132;2023-04-23T11:09:29;5.30;;;4.80;;
7158;SDS011;63175;52.374;13.132;2023-04-23T11:11:57;5.17;;;4.70;;
7158;SDS011;63175;52.374;13.132;2023-04-23T11:14:35;3.63;;;3.33;;
7158;SDS011;63175;52.374;13.132;2023-04-23T11:17:06;3.30;;;2.97;;
7158;SDS011;63175;52.374;13.132;2023-04-23T11:19:37;3.00;;;2.80;;
7158;SDS011;63175;52.374;13.132;2023-04-23T11:22:05;3.20;;;2.90;;
7158;SDS011;63175;52.374;13.132;2023-04-23T11:24:38;2.53;;;2.33;;
7158;SDS011;63175;52.374;13.132;2023-04-23T11:27:07;1.90;;;1.80;;
7158;SDS011;63175;52.374;13.132;2023-04-23T11:29:35;2.90;;;2.17;;
7158;SDS011;63175;52.374;13.132;2023-04-23T11:32:03;1.83;;;1.73;;
7158;SDS011;63175;52.374;13.132;2023-04-23T11:34:34;2.00;;;1.90;;
7158;SDS011;63175;52.374;13.132;2023-04-23T11:37:04;1.80;;;1.70;;
7158;SDS011;63175;52.374;13.132;2023-04-23T11:39:31;1.93;;;1.83;;
7158;SDS011;63175;52.374;13.132;2023-04-23T11:41:58;1.20;;;1.20;;
7158;SDS011;63175;52.374;13.132;2023-04-23T11:44:27;1.77;;;1.67;;
7158;SDS011;63175;52.374;13.132;2023-04-23T11:46:54;1.90;;;1.80;;
7158;SDS011;63175;52.374;13.132;2023-04-23T11:49:21;1.30;;;1.20;;
7158;SDS011;63175;52.374;13.132;2023-04-23T11:51:49;1.47;;;1.37;;
7158;SDS011;63175;52.374;13.132;2023-04-23T11:54:16;1.63;;;1.53;;
7158;SDS011;63175;52.374;13.132;2023-04-23T11:56:44;1.60;;;1.50;;
7158;SDS011;63175;52.374;13.132;2023-04-23T11:59:11;1.67;;;1.27;;
7158;SDS011;63175;52.374;13.132;2023-04-23T12:01:42;1.00;;;0.83;;
7158;SDS011;63175;52.374;13.132;2023-04-23T12:04:13;1.30;;;1.20;;
7158;SDS011;63175;52.374;13.132;2023-04-23T12:06:41;1.10;;;1.00;;
7158;SDS011;63175;52.374;13.132;2023-04-23T12:09:11;3.00;;;1.60;;
7158;SDS011;63175;52.374;13.132;2023-04-23T12:11:38;3.77;;;1.07;;
7158;SDS011;63175;52.374;13.132;2023-04-23T12:14:06;1.13;;;1.10;;
7158;SDS011;63175;52.374;13.132;2023-04-23T12:16:37;2.30;;;2.10;;
7158;SDS011;63175;52.374;13.132;2023-04-23T12:19:09;1.40;;;1.30;;
7158;SDS011;63175;52.374;13.132;2023-04-23T12:21:48;1.50;;;1.40;;
7158;SDS011;63175;52.374;13.132;2023-04-23T12:24:19;1.93;;;1.23;;
7158;SDS011;63175;52.374;13.132;2023-04-23T12:26:51;2.40;;;2.20;;
7158;SDS011;63175;52.374;13.132;2023-04-23T12:29:20;2.10;;;2.00;;
7158;SDS011;63175;52.374;13.132;2023-04-23T12:31:48;2.03;;;1.93;;
7158;SDS011;63175;52.374;13.132;2023-04-23T12:34:16;2.00;;;1.90;;
7158;SDS011;63175;52.374;13.132;2023-04-23T12:36:45;1.90;;;1.80;;
7158;SDS011;63175;52.374;13.132;2023-04-23T12:39:24;2.10;;;2.00;;
7158;SDS011;63175;52.374;13.132;2023-04-23T12:41:54;2.60;;;1.73;;
7158;SDS011;63175;52.374;13.132;2023-04-23T12:44:23;2.17;;;1.80;;
7158;SDS011;63175;52.374;13.132;2023-04-23T12:46:53;1.97;;;1.87;;
7158;SDS011;63175;52.374;13.132;2023-04-23T12:49:21;2.60;;;1.87;;
7158;SDS011;63175;52.374;13.132;2023-04-23T12:51:48;1.97;;;1.77;;
7158;SDS011;63175;52.374;13.132;2023-04-23T12:54:16;1.80;;;1.70;;
7158;SDS011;63175;52.374;13.132;2023-04-23T12:56:44;2.30;;;2.20;;
7158;SDS011;63175;52.374;13.132;2023-04-23T12:59:11;3.90;;;1.80;;
7158;SDS011;63175;52.374;13.132;2023-04-23T13:01:38;2.33;;;1.60;;
7158;SDS011;63175;52.374;13.132;2023-04-23T13:04:05;1.80;;;1.70;;
7158;SDS011;63175;52.374;13.132;2023-04-23T13:06:32;2.37;;;1.80;;
7158;SDS011;63175;52.374;13.132;2023-04-23T13:08:59;1.93;;;1.83;;
7158;SDS011;63175;52.374;13.132;2023-04-23T13:11:29;3.30;;;3.10;;
7158;SDS011;63175;52.374;13.132;2023-04-23T13:13:57;2.50;;;2.00;;
7158;SDS011;63175;52.374;13.132;2023-04-23T13:16:24;2.07;;;1.97;;
7158;SDS011;63175;52.374;13.132;2023-04-23T13:18:51;1.57;;;1.40;;
7158;SDS011;63175;52.374;13.132;2023-04-23T13:21:18;1.20;;;1.10;;
7158;SDS011;63175;52.374;13.132;2023-04-23T13:23:45;1.50;;;1.40;;
7158;SDS011;63175;52.374;13.132;2023-04-23T13:26:12;1.80;;;1.70;;
7158;SDS011;63175;52.374;13.132;2023-04-23T13:28:38;1.57;;;1.47;;
7158;SDS011;63175;52.374;13.132;2023-04-23T13:31:07;1.23;;;1.23;;
7158;SDS011;63175;52.374;13.132;2023-04-23T13:33:36;1.40;;;1.30;;
7158;SDS011;63175;52.374;13.132;2023-04-23T13:36:03;1.23;;;1.20;;
7158;SDS011;63175;52.374;13.132;2023-04-23T13:38:30;1.53;;;1.43;;
7158;SDS011;63175;52.374;13.132;2023-04-23T13:40:57;1.57;;;1.47;;
7158;SDS011;63175;52.374;13.132;2023-04-23T13:43:24;1.30;;;1.20;;
7158;SDS011;63175;52.374;13.132;2023-04-23T13:45:52;1.80;;;1.70;;
7158;SDS011;63175;52.374;13.132;2023-04-23T13:48:20;2.37;;;2.10;;
7158;SDS011;63175;52.374;13.132;2023-04-23T13:50:52;1.70;;;1.60;;
7158;SDS011;63175;52.374;13.132;2023-04-23T13:53:19;1.60;;;1.50;;
7158;SDS011;63175;52.374;13.132;2023-04-23T13:55:46;2.50;;;1.53;;
7158;SDS011;63175;52.374;13.132;2023-04-23T13:58:13;1.63;;;1.37;;
7158;SDS011;63175;52.374;13.132;2023-04-23T14:00:40;1.87;;;1.70;;
7158;SDS011;63175;52.374;13.132;2023-04-23T14:03:08;1.50;;;1.40;;
7158;SDS011;63175;52.374;13.132;2023-04-23T14:05:36;2.13;;;1.20;;
7158;SDS011;63175;52.374;13.132;2023-04-23T14:08:03;1.67;;;1.43;;
7158;SDS011;63175;52.374;13.132;2023-04-23T14:10:30;1.07;;;1.07;;
7158;SDS011;63175;52.374;13.132;2023-04-23T14:12:59;1.70;;;1.43;;
7158;SDS011;63175;52.374;13.132;2023-04-23T14:15:27;1.10;;;1.00;;
7158;SDS011;63175;52.374;13.132;2023-04-23T14:17:54;1.97;;;1.77;;
7158;SDS011;63175;52.374;13.132;2023-04-23T14:20:21;1.77;;;1.60;;
7158;SDS011;63175;52.374;13.132;2023-04-23T14:22:50;1.33;;;1.23;;
7158;SDS011;63175;52.374;13.132;2023-04-23T14:25:28;1.70;;;1.60;;
7158;SDS011;63175;52.374;13.132;2023-04-23T14:27:59;1.63;;;1.37;;
7158;SDS011;63175;52.374;13.132;2023-04-23T14:30:28;1.97;;;1.73;;
7158;SDS011;63175;52.374;13.132;2023-04-23T14:32:55;1.73;;;1.57;;
7158;SDS011;63175;52.374;13.132;2023-04-23T14:35:22;1.27;;;1.23;;
7158;SDS011;63175;52.374;13.132;2023-04-23T14:37:50;1.57;;;1.47;;
7158;SDS011;63175;52.374;13.132;2023-04-23T14:40:17;1.40;;;1.30;;
7158;SDS011;63175;52.374;13.132;2023-04-23T14:42:45;1.50;;;1.40;;
7158;SDS011;63175;52.374;13.132;2023-04-23T14:45:14;1.73;;;1.30;;
7158;SDS011;63175;52.374;13.132;2023-04-23T14:47:42;1.53;;;1.43;;
7158;SDS011;63175;52.374;13.132;2023-04-23T14:50:12;3.50;;;1.80;;
7158;SDS011;63175;52.374;13.132;2023-04-23T14:52:40;1.47;;;1.37;;